Main page
METAR-TAF:

METAR-TAF

Airports :

Carcassonne Airport

Carcassonne, France

latitude: 43-13N, longitude: 002-19E, elevation: 130 m

Current weather observation

The report was made 20 minutes ago, at 15:30 UTC
Wind 13 kt from the West/Northwest
Temperature 19°C
Humidity 37%
Pressure 1016 hPa
Visibility 10 km or more
no clouds below 1500 m and no cumulonimbus

METAR: LFMK 281530Z AUTO 29013KT CAVOK 19/04 Q1016 NOSIG

Time: 16:50 (15:50 UTC)

Forecast

The report was made 1 hour and 50 minutes ago, at 14:00 UTC
Forecast valid from 28 at 15 UTC to 29 at 15 UTC
Wind 12 kt from the West/Northwest
Visibility 10 km or more
no clouds below 1500 m and no cumulonimbus
Becoming
from 29 at 10 UTC to 29 at 12 UTC
Wind 15 kt from the West with gusts up to 25 kt
Visibility 10 km or more
Scattered clouds at a height of 4000 ft

TAF: LFMK 281400Z 2815/2915 29012KT CAVOK BECMG 2910/2912 27015G25KT 9999 SCT040

Weather observations and forecasts of more than 4000 airports (METAR and TAF reports).

The available stations are represented by yellow and red dots on the map.

Hover mouse over dot to see the name of the station.

Then click to see weather observations and forecasts.

To change the map : click on the green buttons with a black cross to zoom in, on the green button with a dash to zoom out, or on the green arrows for adjacent maps.


METAR-TAF: